Terminal Aerodrome Forecast
Issued by NWS

Home | Current Version | Previous Version | Graphics & Text | Print | Product List | Glossary On
Versions: 1 2 3 4 5 6 7 8 9 10 11 12 13 14 15 16 17 18
526
FTUS42 KMHX 231743
TAFISO
TAF
KISO 231743Z 2318/2418 11015KT P6SM VCSH OVC045
     FM232300 11012KT P6SM -RA OVC040
     FM240400 10014G22KT 6SM -RA OVC025
     FM240900 11014G22KT 4SM RA OVC008
     FM241300 11014G22KT 2SM +SHRA OVC008
      AMD LTD TO CLD VIS AND WIND=

USA.gov is the U.S. government's official web portal to all federal, state and local government web resources and services.